createdAt,value
2022-12-23T00:01:28.932Z,1.30
2022-12-23T00:03:31.260Z,2.07
2022-12-23T00:05:38.114Z,2.50
2022-12-23T00:07:40.046Z,1.70
2022-12-23T00:09:43.804Z,2.20
2022-12-23T00:12:04.007Z,1.70
2022-12-23T00:14:24.228Z,1.60
2022-12-23T00:16:26.090Z,2.07
2022-12-23T00:18:28.113Z,1.60
2022-12-23T00:20:29.866Z,2.07
2022-12-23T00:22:50.473Z,1.57
2022-12-23T00:24:54.199Z,1.77
2022-12-23T00:26:55.922Z,1.80
2022-12-23T00:28:58.545Z,1.97
2022-12-23T00:31:03.474Z,1.63
2022-12-23T00:33:05.652Z,2.47
2022-12-23T00:35:08.836Z,1.80
2022-12-23T00:37:16.371Z,1.80
2022-12-23T00:39:44.221Z,2.10
2022-12-23T00:42:04.671Z,5.07
2022-12-23T00:44:06.386Z,5.03
2022-12-23T00:46:08.167Z,5.97
2022-12-23T00:48:28.492Z,5.13
2022-12-23T00:50:31.338Z,2.63
2022-12-23T00:52:33.022Z,4.03
2022-12-23T00:54:35.954Z,1.43
2022-12-23T00:56:40.248Z,1.80
2022-12-23T00:58:41.920Z,1.73
2022-12-23T01:01:03.427Z,1.97
2022-12-23T01:03:24.157Z,1.93
2022-12-23T01:05:37.827Z,1.73
2022-12-23T01:07:39.544Z,1.83
2022-12-23T01:09:42.270Z,1.60
2022-12-23T01:11:43.952Z,1.50
2022-12-23T01:13:45.606Z,1.40
2022-12-23T01:15:47.698Z,1.60
2022-12-23T01:17:49.380Z,1.70
2022-12-23T01:19:51.503Z,1.60
2022-12-23T01:21:53.173Z,1.80
2022-12-23T01:23:54.852Z,1.80
2022-12-23T01:26:00.956Z,1.80
2022-12-23T01:28:02.617Z,1.60
2022-12-23T01:30:04.743Z,1.63
2022-12-23T01:32:06.497Z,1.77
2022-12-23T01:34:12.781Z,1.47
2022-12-23T01:36:14.467Z,1.40
2022-12-23T01:38:16.156Z,1.50
2022-12-23T01:40:17.835Z,1.50
2022-12-23T01:42:40.067Z,2.17
2022-12-23T01:45:02.599Z,1.80
2022-12-23T01:47:09.480Z,1.87
2022-12-23T01:49:11.284Z,2.00
2022-12-23T01:51:20.692Z,1.93
2022-12-23T01:53:35.497Z,1.90
2022-12-23T01:56:02.908Z,2.60
2022-12-23T01:58:17.962Z,1.90
2022-12-23T02:00:38.291Z,2.17
2022-12-23T02:03:01.052Z,1.83
2022-12-23T02:05:03.021Z,1.50
2022-12-23T02:07:26.409Z,1.80
2022-12-23T02:09:29.668Z,1.63
2022-12-23T02:12:29.904Z,2.60
2022-12-23T02:15:02.329Z,1.40
2022-12-23T02:17:52.402Z,1.57
2022-12-23T02:20:12.598Z,1.53
2022-12-23T02:22:25.989Z,1.40
2022-12-23T02:24:53.814Z,1.30
2022-12-23T02:27:00.333Z,1.37
2022-12-23T02:29:26.329Z,1.50
2022-12-23T02:32:10.903Z,1.30
2022-12-23T02:34:17.848Z,1.50
2022-12-23T02:36:46.125Z,1.50
2022-12-23T02:39:27.653Z,1.60
2022-12-23T02:41:48.424Z,1.50
2022-12-23T02:44:12.518Z,1.57
2022-12-23T02:46:23.818Z,1.50
2022-12-23T02:48:51.926Z,1.50
2022-12-23T02:50:56.647Z,1.60
2022-12-23T02:53:03.775Z,1.73
2022-12-23T02:55:09.987Z,1.60
2022-12-23T02:57:14.275Z,2.07
2022-12-23T02:59:23.053Z,2.50
2022-12-23T03:01:27.558Z,2.17
2022-12-23T03:03:29.527Z,1.63
2022-12-23T03:05:44.874Z,1.60
2022-12-23T03:07:46.597Z,1.50
2022-12-23T03:10:30.854Z,1.90
2022-12-23T03:13:03.835Z,2.70
2022-12-23T03:15:30.624Z,2.13
2022-12-23T03:17:47.934Z,1.67
2022-12-23T03:19:58.930Z,1.57
2022-12-23T03:22:22.460Z,1.40
2022-12-23T03:24:53.555Z,2.80
2022-12-23T03:27:05.661Z,1.30
2022-12-23T03:29:29.828Z,1.57
2022-12-23T03:31:34.225Z,1.63
2022-12-23T03:33:41.329Z,2.50
2022-12-23T03:35:51.394Z,2.57
2022-12-23T03:37:55.803Z,2.40
2022-12-23T03:40:13.408Z,1.30
2022-12-23T03:42:23.881Z,1.40
2022-12-23T03:44:31.657Z,1.80
2022-12-23T03:46:41.205Z,1.37
2022-12-23T03:48:52.750Z,2.03
2022-12-23T03:50:59.746Z,1.67
2022-12-23T03:53:10.863Z,1.50
2022-12-23T03:55:20.258Z,1.50
2022-12-23T03:57:25.602Z,1.57
2022-12-23T03:59:43.501Z,1.47
2022-12-23T04:02:09.192Z,1.43
2022-12-23T04:04:33.400Z,2.40
2022-12-23T04:07:01.866Z,1.60
2022-12-23T04:09:05.263Z,1.57
2022-12-23T04:11:07.827Z,1.33
2022-12-23T04:13:11.875Z,1.43
2022-12-23T04:15:13.743Z,1.50
2022-12-23T04:17:17.995Z,1.40
2022-12-23T04:19:21.832Z,1.20
2022-12-23T04:21:26.578Z,1.40
2022-12-23T04:23:30.530Z,1.30
2022-12-23T04:25:32.278Z,1.17
2022-12-23T04:27:34.135Z,1.33
2022-12-23T04:29:37.839Z,1.40
2022-12-23T04:31:39.697Z,1.60
2022-12-23T04:33:41.458Z,1.80
2022-12-23T04:35:45.351Z,1.77
2022-12-23T04:37:46.989Z,1.50
2022-12-23T04:39:51.251Z,1.53
2022-12-23T04:41:53.053Z,1.60
2022-12-23T04:43:56.931Z,1.70
2022-12-23T04:45:58.542Z,1.70
2022-12-23T04:48:00.141Z,1.53
2022-12-23T04:50:02.698Z,1.73
2022-12-23T04:52:04.398Z,1.73
2022-12-23T04:54:06.252Z,1.40
2022-12-23T04:56:07.933Z,1.63
2022-12-23T04:58:12.056Z,1.30
2022-12-23T05:00:14.311Z,1.43
2022-12-23T05:02:16.159Z,1.40
2022-12-23T05:04:18.060Z,1.30
2022-12-23T05:06:19.740Z,1.17
2022-12-23T05:08:21.437Z,1.40
2022-12-23T05:10:25.259Z,1.40
2022-12-23T05:12:28.258Z,1.47
2022-12-23T05:14:29.931Z,1.30
2022-12-23T05:16:32.042Z,1.30
2022-12-23T05:18:33.771Z,1.30
2022-12-23T05:20:35.598Z,1.33
2022-12-23T05:22:37.257Z,1.23
2022-12-23T05:24:38.898Z,1.30
2022-12-23T05:26:43.819Z,1.20
2022-12-23T05:28:50.144Z,1.97
2022-12-23T05:31:03.890Z,1.10
2022-12-23T05:33:05.582Z,1.70
2022-12-23T05:35:10.591Z,1.10
2022-12-23T05:37:12.284Z,1.63
2022-12-23T05:39:14.008Z,1.20
2022-12-23T05:41:20.421Z,1.50
2022-12-23T05:43:22.240Z,2.30
2022-12-23T05:45:25.993Z,4.67
2022-12-23T05:47:30.012Z,2.50
2022-12-23T05:49:31.643Z,1.33
2022-12-23T05:51:33.330Z,1.97
2022-12-23T05:53:35.090Z,1.60
2022-12-23T05:55:38.779Z,2.47
2022-12-23T05:57:40.453Z,1.30
2022-12-23T05:59:42.708Z,1.33
2022-12-23T06:01:44.550Z,1.30
2022-12-23T06:03:48.571Z,1.70
2022-12-23T06:05:52.002Z,1.40
2022-12-23T06:07:53.648Z,1.60
2022-12-23T06:09:55.590Z,1.70
2022-12-23T06:11:59.320Z,1.63
2022-12-23T06:14:02.646Z,1.30
2022-12-23T06:16:04.852Z,1.50
2022-12-23T06:18:06.549Z,1.47
2022-12-23T06:20:12.135Z,1.83
2022-12-23T06:22:20.963Z,1.60
2022-12-23T06:24:23.282Z,1.50
2022-12-23T06:26:27.479Z,1.70
2022-12-23T06:28:29.590Z,1.93
2022-12-23T06:30:31.278Z,2.00
2022-12-23T06:32:38.359Z,1.70
2022-12-23T06:34:40.569Z,2.07
2022-12-23T06:36:44.735Z,1.57
2022-12-23T06:38:46.494Z,2.07
2022-12-23T06:40:48.144Z,1.47
2022-12-23T06:42:49.903Z,1.80
2022-12-23T06:44:51.745Z,1.77
2022-12-23T06:46:53.418Z,1.60
2022-12-23T06:48:55.091Z,1.50
2022-12-23T06:50:56.836Z,1.40
2022-12-23T06:52:58.464Z,1.73
2022-12-23T06:55:00.183Z,1.87
2022-12-23T06:57:01.959Z,1.70
2022-12-23T06:59:05.957Z,2.07
2022-12-23T07:01:09.194Z,2.00
2022-12-23T07:03:12.119Z,2.10
2022-12-23T07:05:17.036Z,3.00
2022-12-23T07:07:19.116Z,3.10
2022-12-23T07:09:20.861Z,3.03
2022-12-23T07:11:22.538Z,3.00
2022-12-23T07:13:24.180Z,5.10
2022-12-23T07:15:25.883Z,4.23
2022-12-23T07:17:28.117Z,5.00
2022-12-23T07:19:30.103Z,4.30
2022-12-23T07:21:31.786Z,5.53
2022-12-23T07:23:35.785Z,4.87
2022-12-23T07:25:38.393Z,5.10
2022-12-23T07:27:40.105Z,4.30
2022-12-23T07:29:41.874Z,4.20
2022-12-23T07:31:43.686Z,4.00
2022-12-23T07:33:46.140Z,3.70
2022-12-23T07:35:47.766Z,3.93
2022-12-23T07:37:56.751Z,4.17
2022-12-23T07:40:02.140Z,4.80
2022-12-23T07:42:42.599Z,3.10
2022-12-23T07:44:28.468Z,3.73
2022-12-23T07:46:30.337Z,3.90
2022-12-23T07:48:32.089Z,5.27
2022-12-23T07:50:33.783Z,4.60
2022-12-23T07:52:35.545Z,6.60
2022-12-23T07:54:39.318Z,7.03
2022-12-23T07:56:41.116Z,6.40
2022-12-23T07:58:42.788Z,6.63
2022-12-23T08:00:44.737Z,5.50
2022-12-23T08:02:48.034Z,7.97
2022-12-23T08:04:49.881Z,8.63
2022-12-23T08:06:51.637Z,11.73
2022-12-23T08:08:53.374Z,8.83
2022-12-23T08:11:02.140Z,8.83
2022-12-23T08:13:07.381Z,12.50
2022-12-23T08:15:09.361Z,7.47
2022-12-23T08:17:14.124Z,7.10
2022-12-23T08:19:16.095Z,6.63
2022-12-23T08:21:19.395Z,5.97
2022-12-23T08:23:24.695Z,4.73
2022-12-23T08:25:29.316Z,4.70
2022-12-23T08:27:31.071Z,4.07
2022-12-23T08:29:36.464Z,4.37
2022-12-23T08:31:38.363Z,3.73
2022-12-23T08:33:47.516Z,4.20
2022-12-23T08:35:53.266Z,4.00
2022-12-23T08:37:57.655Z,4.23
2022-12-23T08:39:59.364Z,4.47
2022-12-23T08:42:01.092Z,4.53
2022-12-23T08:44:05.473Z,4.40
2022-12-23T08:46:07.864Z,5.20
2022-12-23T08:48:10.570Z,4.70
2022-12-23T08:50:12.373Z,4.97
2022-12-23T08:52:14.059Z,4.80
2022-12-23T08:54:16.081Z,5.40
2022-12-23T08:56:22.382Z,5.07
2022-12-23T08:58:23.998Z,8.43
2022-12-23T09:00:27.203Z,5.23
2022-12-23T09:02:29.113Z,5.10
2022-12-23T09:04:30.861Z,5.50
2022-12-23T09:06:41.132Z,4.97
2022-12-23T09:08:43.427Z,4.40
2022-12-23T09:10:45.086Z,4.57
2022-12-23T09:12:47.107Z,6.10
2022-12-23T09:14:48.857Z,4.20
2022-12-23T09:16:56.711Z,4.47
2022-12-23T09:18:58.503Z,4.87
2022-12-23T09:21:02.023Z,3.80
2022-12-23T09:23:05.045Z,4.03
2022-12-23T09:25:07.041Z,4.20
2022-12-23T09:27:08.665Z,4.20
2022-12-23T09:29:10.291Z,3.57
2022-12-23T09:31:13.348Z,3.87
2022-12-23T09:33:15.500Z,4.17
2022-12-23T09:35:18.462Z,3.87
2022-12-23T09:37:25.530Z,5.37
2022-12-23T09:39:27.383Z,3.70
2022-12-23T09:41:40.361Z,3.57
2022-12-23T09:44:18.257Z,3.70
2022-12-23T09:46:25.321Z,4.20
2022-12-23T09:48:37.099Z,3.23
2022-12-23T09:50:42.307Z,5.30
2022-12-23T09:52:56.842Z,3.70
2022-12-23T09:54:58.715Z,2.97
2022-12-23T09:57:03.127Z,3.33
2022-12-23T09:59:20.029Z,2.63
2022-12-23T10:01:51.143Z,2.80
2022-12-23T10:04:04.272Z,2.63
2022-12-23T10:06:14.334Z,2.77
2022-12-23T10:08:31.063Z,4.43
2022-12-23T10:10:46.491Z,5.80
2022-12-23T10:12:51.543Z,2.43
2022-12-23T10:14:58.446Z,2.43
2022-12-23T10:17:12.612Z,2.27
2022-12-23T10:19:41.983Z,2.70
2022-12-23T10:21:50.859Z,2.20
2022-12-23T10:23:55.588Z,2.60
2022-12-23T10:25:57.365Z,2.90
2022-12-23T10:28:00.628Z,3.33
2022-12-23T10:30:53.530Z,2.70
2022-12-23T10:32:48.931Z,3.00
2022-12-23T10:34:54.676Z,5.57
2022-12-23T10:37:20.670Z,5.37
2022-12-23T10:39:34.487Z,4.47
2022-12-23T10:42:06.886Z,3.50
2022-12-23T10:44:14.295Z,3.43
2022-12-23T10:46:41.078Z,2.07
2022-12-23T10:48:57.426Z,1.93
2022-12-23T10:51:12.745Z,2.60
2022-12-23T10:53:27.373Z,5.83
2022-12-23T10:55:34.280Z,12.40
2022-12-23T10:57:36.104Z,4.07
2022-12-23T10:59:38.237Z,5.73
2022-12-23T11:01:40.756Z,5.00
2022-12-23T11:03:52.513Z,8.97
2022-12-23T11:05:55.871Z,7.80
2022-12-23T11:07:58.146Z,2.87
2022-12-23T11:10:16.078Z,5.03
2022-12-23T11:12:23.087Z,3.63
2022-12-23T11:14:38.834Z,5.70
2022-12-23T11:16:45.907Z,5.67
2022-12-23T11:18:56.559Z,3.87
2022-12-23T11:21:04.597Z,3.93
2022-12-23T11:23:22.628Z,3.60
2022-12-23T11:25:29.187Z,4.23
2022-12-23T11:27:32.267Z,3.60
2022-12-23T11:29:48.030Z,3.63
2022-12-23T11:31:50.477Z,4.37
2022-12-23T11:33:57.556Z,3.27
2022-12-23T11:36:08.535Z,3.30
2022-12-23T11:38:13.863Z,3.77
2022-12-23T11:40:27.414Z,4.17
2022-12-23T11:42:31.095Z,3.83
2022-12-23T11:44:42.695Z,3.33
2022-12-23T11:46:44.922Z,3.50
2022-12-23T11:48:54.377Z,2.43
2022-12-23T11:51:01.438Z,2.60
2022-12-23T11:53:24.046Z,2.33
2022-12-23T11:55:32.654Z,2.40
2022-12-23T11:57:52.005Z,2.40
2022-12-23T12:00:02.610Z,2.03
2022-12-23T12:02:41.750Z,2.43
2022-12-23T12:04:43.767Z,1.60
2022-12-23T12:06:51.183Z,1.90
2022-12-23T12:08:59.817Z,2.57
2022-12-23T12:11:17.840Z,2.03
2022-12-23T12:13:28.543Z,1.90
2022-12-23T12:16:15.159Z,2.27
2022-12-23T12:18:20.680Z,1.50
2022-12-23T12:20:49.714Z,1.50
2022-12-23T12:23:15.021Z,1.80
2022-12-23T12:25:20.487Z,1.83
2022-12-23T12:27:32.916Z,1.73
2022-12-23T12:30:08.967Z,1.80
2022-12-23T12:32:33.191Z,1.70
2022-12-23T12:35:01.851Z,2.37
2022-12-23T12:37:10.114Z,1.50
2022-12-23T12:39:24.645Z,1.50
2022-12-23T12:41:39.659Z,1.40
2022-12-23T12:43:48.700Z,1.30
2022-12-23T12:46:16.320Z,1.50
2022-12-23T12:48:56.164Z,1.53
2022-12-23T12:51:19.322Z,1.77
2022-12-23T12:53:23.326Z,1.50
2022-12-23T12:55:39.682Z,1.43
2022-12-23T12:57:41.622Z,1.40
2022-12-23T12:59:52.023Z,1.47
2022-12-23T13:02:22.094Z,1.40
2022-12-23T13:04:28.720Z,1.37
2022-12-23T13:07:05.238Z,1.50
2022-12-23T13:09:40.077Z,1.70
2022-12-23T13:12:01.709Z,1.30
2022-12-23T13:14:20.887Z,1.93
2022-12-23T13:16:54.833Z,1.30
2022-12-23T13:19:12.961Z,1.43
2022-12-23T13:21:29.981Z,1.30
2022-12-23T13:23:50.248Z,1.50
2022-12-23T13:26:00.390Z,2.53
2022-12-23T13:28:33.534Z,1.40
2022-12-23T13:31:05.164Z,1.20
2022-12-23T13:33:18.929Z,1.47
2022-12-23T13:35:51.529Z,1.30
2022-12-23T13:38:01.969Z,1.67
2022-12-23T13:40:09.232Z,1.10
2022-12-23T13:42:19.223Z,1.40
2022-12-23T13:44:21.927Z,2.30
2022-12-23T13:46:43.074Z,2.20
2022-12-23T13:49:12.878Z,1.60
2022-12-23T13:51:33.507Z,1.30
2022-12-23T13:53:53.572Z,1.23
2022-12-23T13:56:20.122Z,1.50
2022-12-23T13:58:28.544Z,1.67
2022-12-23T14:00:34.430Z,1.50
2022-12-23T14:02:36.336Z,1.53
2022-12-23T14:04:59.159Z,1.10
2022-12-23T14:07:16.978Z,1.30
2022-12-23T14:09:32.041Z,1.50
2022-12-23T14:11:39.008Z,1.10
2022-12-23T14:13:49.808Z,0.90
2022-12-23T14:16:23.139Z,1.30
2022-12-23T14:18:45.401Z,1.40
2022-12-23T14:21:00.812Z,1.33
2022-12-23T14:23:28.615Z,3.13
2022-12-23T14:25:52.599Z,1.33
2022-12-23T14:28:19.372Z,1.33
2022-12-23T14:30:40.171Z,1.13
2022-12-23T14:32:51.527Z,1.30
2022-12-23T14:35:16.312Z,0.90
2022-12-23T14:37:21.119Z,1.30
2022-12-23T14:39:33.382Z,1.93
2022-12-23T14:41:47.870Z,1.10
2022-12-23T14:43:55.700Z,0.80
2022-12-23T14:46:06.340Z,1.10
2022-12-23T14:48:44.197Z,0.97
2022-12-23T14:51:01.663Z,1.57
2022-12-23T14:53:24.945Z,1.77
2022-12-23T14:55:36.592Z,1.23
2022-12-23T14:57:38.810Z,1.43
2022-12-23T14:59:58.594Z,1.10
2022-12-23T15:02:06.643Z,1.80
2022-12-23T15:04:14.096Z,1.30
2022-12-23T15:06:32.354Z,1.63
2022-12-23T15:08:39.249Z,1.00
2022-12-23T15:10:46.135Z,1.20
2022-12-23T15:12:52.096Z,1.80
2022-12-23T15:14:58.387Z,0.93
2022-12-23T15:17:13.795Z,1.10
2022-12-23T15:19:25.547Z,1.20
2022-12-23T15:21:30.513Z,1.00
2022-12-23T15:23:33.273Z,1.00
2022-12-23T15:25:42.704Z,1.10
2022-12-23T15:27:44.586Z,0.80
2022-12-23T15:29:50.572Z,1.07
2022-12-23T15:31:58.405Z,1.20
2022-12-23T15:34:04.733Z,1.00
2022-12-23T15:36:11.763Z,1.20
2022-12-23T15:38:15.582Z,0.77
2022-12-23T15:40:34.580Z,1.13
2022-12-23T15:42:38.162Z,1.17
2022-12-23T15:44:39.944Z,1.10
2022-12-23T15:46:42.100Z,1.07
2022-12-23T15:48:48.124Z,1.60
2022-12-23T15:50:53.277Z,1.87
2022-12-23T15:53:05.847Z,1.60
2022-12-23T15:55:12.160Z,1.93
2022-12-23T15:57:21.210Z,1.30
2022-12-23T15:59:36.770Z,2.33
2022-12-23T16:01:39.743Z,1.50
2022-12-23T16:03:44.868Z,1.30
2022-12-23T16:05:46.705Z,1.77
2022-12-23T16:07:48.351Z,1.33
2022-12-23T16:09:54.885Z,1.90
2022-12-23T16:12:26.136Z,1.33
2022-12-23T16:14:30.814Z,2.20
2022-12-23T16:16:38.296Z,1.67
2022-12-23T16:18:47.151Z,1.17
2022-12-23T16:21:00.376Z,3.23
2022-12-23T16:23:03.233Z,1.80
2022-12-23T16:25:17.081Z,1.20
2022-12-23T16:27:32.183Z,2.27
2022-12-23T16:29:33.970Z,1.57
2022-12-23T16:31:37.002Z,3.60
2022-12-23T16:33:48.135Z,1.90
2022-12-23T16:35:49.946Z,1.77
2022-12-23T16:37:58.316Z,2.87
2022-12-23T16:40:05.558Z,1.70
2022-12-23T16:42:07.323Z,2.27
2022-12-23T16:44:09.262Z,1.43
2022-12-23T16:46:16.991Z,2.33
2022-12-23T16:48:37.144Z,3.00
2022-12-23T16:50:41.402Z,2.40
2022-12-23T16:52:43.123Z,1.77
2022-12-23T16:54:44.818Z,2.17
2022-12-23T16:56:46.820Z,3.13
2022-12-23T16:58:48.640Z,3.87
2022-12-23T17:00:51.523Z,3.00
2022-12-23T17:02:55.848Z,2.70
2022-12-23T17:04:57.573Z,2.60
2022-12-23T17:07:03.256Z,4.73
2022-12-23T17:09:08.136Z,3.67
2022-12-23T17:11:19.031Z,2.83
2022-12-23T17:13:23.375Z,3.03
2022-12-23T17:15:25.786Z,3.13
2022-12-23T17:17:27.551Z,3.13
2022-12-23T17:19:29.723Z,4.10
2022-12-23T17:21:41.542Z,3.67
2022-12-23T17:23:43.326Z,3.50
2022-12-23T17:25:45.171Z,3.67
2022-12-23T17:27:53.387Z,2.40
2022-12-23T17:29:55.392Z,2.53
2022-12-23T17:31:57.425Z,3.90
2022-12-23T17:33:59.356Z,4.73
2022-12-23T17:36:01.782Z,3.63
2022-12-23T17:38:12.633Z,4.10
2022-12-23T17:40:15.980Z,6.20
2022-12-23T17:42:25.595Z,4.63
2022-12-23T17:44:27.873Z,2.87
2022-12-23T17:46:29.656Z,5.63
2022-12-23T17:48:32.048Z,7.63
2022-12-23T17:50:34.938Z,4.63
2022-12-23T17:52:38.896Z,3.93
2022-12-23T17:54:40.674Z,3.90
2022-12-23T17:56:44.821Z,3.23
2022-12-23T17:58:48.790Z,4.83
2022-12-23T18:00:50.600Z,3.47
2022-12-23T18:02:54.418Z,4.80
2022-12-23T18:04:56.332Z,6.27
2022-12-23T18:07:00.437Z,4.23
2022-12-23T18:09:02.078Z,5.83
2022-12-23T18:11:05.765Z,9.20
2022-12-23T18:13:17.278Z,5.67
2022-12-23T18:15:24.443Z,8.37
2022-12-23T18:17:26.208Z,8.13
2022-12-23T18:19:27.946Z,8.00
2022-12-23T18:21:29.654Z,7.83
2022-12-23T18:23:34.391Z,7.33
2022-12-23T18:25:36.076Z,6.97
2022-12-23T18:27:37.727Z,5.73
2022-12-23T18:29:39.467Z,4.87
2022-12-23T18:31:51.450Z,6.67
2022-12-23T18:33:53.983Z,7.97
2022-12-23T18:35:56.300Z,10.50
2022-12-23T18:37:59.241Z,6.30
2022-12-23T18:40:00.900Z,6.87
2022-12-23T18:42:13.653Z,5.93
2022-12-23T18:44:20.867Z,3.40
2022-12-23T18:46:23.046Z,5.70
2022-12-23T18:48:26.398Z,5.27
2022-12-23T18:50:28.822Z,7.30
2022-12-23T18:52:30.448Z,7.40
2022-12-23T18:54:32.206Z,6.83
2022-12-23T18:56:33.943Z,9.47
2022-12-23T18:58:35.617Z,8.07
2022-12-23T19:00:37.716Z,8.77
2022-12-23T19:02:41.863Z,5.73
2022-12-23T19:04:43.602Z,10.00
2022-12-23T19:06:45.682Z,10.00
2022-12-23T19:08:49.325Z,7.87
2022-12-23T19:10:52.802Z,10.50
2022-12-23T19:12:54.839Z,8.13
2022-12-23T19:14:59.067Z,8.37
2022-12-23T19:17:01.730Z,8.30
2022-12-23T19:19:03.721Z,6.37
2022-12-23T19:21:05.821Z,7.63
2022-12-23T19:23:07.492Z,10.00
2022-12-23T19:25:12.251Z,12.17
2022-12-23T19:27:15.688Z,9.03
2022-12-23T19:29:17.340Z,12.33
2022-12-23T19:31:23.105Z,10.67
2022-12-23T19:33:25.718Z,7.57
2022-12-23T19:35:27.555Z,9.70
2022-12-23T19:37:31.920Z,7.63
2022-12-23T19:39:33.704Z,7.60
2022-12-23T19:41:35.395Z,12.83
2022-12-23T19:43:38.452Z,11.80
2022-12-23T19:45:40.329Z,10.70
2022-12-23T19:47:42.059Z,10.53
2022-12-23T19:49:43.776Z,10.23
2022-12-23T19:51:48.443Z,8.67
2022-12-23T19:53:51.803Z,7.10
2022-12-23T19:56:01.420Z,8.07
2022-12-23T19:58:03.092Z,11.40
2022-12-23T20:00:05.847Z,10.40
2022-12-23T20:02:15.635Z,10.40
2022-12-23T20:04:17.439Z,9.10
2022-12-23T20:06:26.215Z,9.33
2022-12-23T20:08:28.155Z,11.47
2022-12-23T20:10:29.906Z,9.10
2022-12-23T20:12:31.570Z,12.97
2022-12-23T20:14:36.246Z,8.20
2022-12-23T20:16:39.333Z,8.57
2022-12-23T20:18:41.056Z,13.70
2022-12-23T20:20:44.211Z,12.83
2022-12-23T20:22:46.374Z,10.13
2022-12-23T20:24:48.088Z,9.83
2022-12-23T20:26:49.831Z,12.10
2022-12-23T20:28:54.874Z,10.00
2022-12-23T20:31:07.341Z,10.00
2022-12-23T20:33:10.232Z,9.40
2022-12-23T20:35:11.939Z,11.43
2022-12-23T20:37:15.986Z,11.23
2022-12-23T20:39:20.196Z,9.90
2022-12-23T20:41:26.265Z,11.90
2022-12-23T20:43:28.490Z,11.93
2022-12-23T20:45:30.610Z,13.03
2022-12-23T20:47:34.587Z,12.33
2022-12-23T20:49:38.768Z,11.03
2022-12-23T20:51:42.358Z,11.83
2022-12-23T20:53:44.411Z,8.90
2022-12-23T20:55:49.009Z,13.83
2022-12-23T20:57:50.707Z,10.70
2022-12-23T20:59:54.539Z,11.50
2022-12-23T21:01:56.560Z,9.33
2022-12-23T21:04:00.983Z,7.77
2022-12-23T21:06:02.686Z,9.13
2022-12-23T21:08:04.566Z,13.80
2022-12-23T21:10:06.986Z,11.00
2022-12-23T21:12:08.770Z,9.37
2022-12-23T21:14:14.778Z,11.57
2022-12-23T21:16:17.026Z,8.80
2022-12-23T21:18:19.310Z,15.90
2022-12-23T21:20:21.005Z,10.13
2022-12-23T21:22:24.884Z,12.50
2022-12-23T21:24:26.773Z,8.63
2022-12-23T21:26:30.133Z,11.20
2022-12-23T21:28:31.827Z,10.60
2022-12-23T21:30:34.140Z,9.80
2022-12-23T21:32:36.016Z,9.83
2022-12-23T21:34:37.902Z,10.70
2022-12-23T21:37:07.318Z,10.33
2022-12-23T21:39:15.116Z,7.30
2022-12-23T21:41:19.752Z,8.93
2022-12-23T21:43:21.721Z,9.87
2022-12-23T21:45:23.769Z,9.93
2022-12-23T21:47:27.791Z,8.80
2022-12-23T21:49:30.804Z,9.23
2022-12-23T21:51:39.672Z,9.97
2022-12-23T21:53:45.596Z,10.63
2022-12-23T21:55:47.375Z,11.23
2022-12-23T21:57:49.009Z,9.10
2022-12-23T21:59:53.497Z,13.60
2022-12-23T22:01:55.669Z,8.80
2022-12-23T22:03:59.720Z,12.50
2022-12-23T22:06:10.718Z,11.23
2022-12-23T22:08:12.782Z,8.33
2022-12-23T22:10:14.506Z,9.47
2022-12-23T22:12:16.360Z,8.07
2022-12-23T22:14:19.595Z,8.43
2022-12-23T22:16:24.084Z,12.43
2022-12-23T22:18:25.754Z,9.73
2022-12-23T22:20:27.436Z,9.70
2022-12-23T22:22:31.451Z,9.23
2022-12-23T22:24:37.653Z,12.10
2022-12-23T22:26:40.001Z,11.53
2022-12-23T22:28:42.844Z,10.83
2022-12-23T22:30:44.539Z,9.07
2022-12-23T22:32:48.684Z,10.47
2022-12-23T22:34:50.405Z,12.27
2022-12-23T22:36:52.283Z,12.50
2022-12-23T22:38:56.564Z,10.90
2022-12-23T22:40:58.225Z,11.03
2022-12-23T22:43:00.232Z,9.60
2022-12-23T22:45:02.028Z,10.80
2022-12-23T22:47:06.600Z,14.20
2022-12-23T22:49:14.947Z,12.83
2022-12-23T22:51:22.427Z,11.40
2022-12-23T22:53:29.573Z,11.07
2022-12-23T22:55:34.151Z,10.70
2022-12-23T22:57:35.888Z,14.10
2022-12-23T22:59:37.800Z,9.83
2022-12-23T23:01:39.599Z,11.93
2022-12-23T23:03:41.279Z,8.63
2022-12-23T23:05:42.984Z,10.77
2022-12-23T23:07:44.778Z,11.37
2022-12-23T23:09:46.664Z,12.70
2022-12-23T23:11:51.453Z,16.20
2022-12-23T23:13:53.758Z,12.53
2022-12-23T23:15:56.048Z,9.37
2022-12-23T23:18:00.017Z,12.40
2022-12-23T23:20:01.799Z,10.17
2022-12-23T23:22:03.791Z,11.63
2022-12-23T23:24:05.907Z,12.60
2022-12-23T23:26:11.335Z,9.63
2022-12-23T23:28:17.989Z,12.37
2022-12-23T23:30:19.826Z,13.57
2022-12-23T23:32:28.852Z,10.03
2022-12-23T23:34:33.764Z,9.27
2022-12-23T23:36:35.719Z,12.10
2022-12-23T23:38:37.547Z,14.60
2022-12-23T23:40:41.445Z,12.00
2022-12-23T23:42:43.192Z,11.37
2022-12-23T23:44:45.329Z,11.30
2022-12-23T23:46:47.280Z,14.40
2022-12-23T23:48:51.291Z,11.60
2022-12-23T23:50:53.035Z,16.23
2022-12-23T23:52:56.899Z,11.80
2022-12-23T23:54:58.715Z,11.90
2022-12-23T23:57:00.467Z,17.63
2022-12-23T23:59:02.139Z,12.97
